Time;durP1;ratioP1;P1;durP2;ratioP2;P2;SDS_P1;SDS_P2;PMS_P1;PMS_P2;Temp;Humidity;BMP_temperature;BMP_pressure;BME280_temperature;BME280_humidity;BME280_pressure;Samples;Min_cycle;Max_cycle;Signal;HPM_P1;HPM_P2
2023/10/19 00:02:24;;;;;;;;;;;;;;;20.16;54.18;97009.75;594913;238;64792;-67
2023/10/19 00:04:52;;;;;;;;;;;;;;;20.16;54.70;97001.73;594920;238;65066;-67
2023/10/19 00:07:19;;;;;;;;;;;;;;;20.16;53.41;97001.73;594939;238;64588;-66
2023/10/19 00:09:52;;;;;;;;;;;;;;;20.16;52.37;96999.07;594883;237;67589;-66
2023/10/19 00:12:16;;;;;;;;;;;;;;;20.16;52.29;96988.40;594776;238;67092;-66
2023/10/19 00:14:44;;;;;;;;;;;;;;;20.17;52.61;96994.53;594920;236;62618;-66
2023/10/19 00:17:12;;;;;;;;;;;;;;;20.17;52.33;96989.19;594852;237;64870;-66
2023/10/19 00:19:50;;;;;;;;;;;;;;;20.16;53.43;96985.73;594949;238;67082;-66
2023/10/19 00:22:15;;;;;;;;;;;;;;;20.16;53.92;96983.06;594369;238;64948;-66
2023/10/19 00:24:41;;;;;;;;;;;;;;;20.17;54.31;96978.52;594717;238;67336;-66
2023/10/19 00:27:16;;;;;;;;;;;;;;;20.16;55.24;96974.23;594799;238;64947;-66
2023/10/19 00:29:40;;;;;;;;;;;;;;;20.16;54.12;96980.39;594608;238;65144;-66
2023/10/19 00:32:13;;;;;;;;;;;;;;;20.16;52.96;96979.56;594851;238;67434;-67
2023/10/19 00:34:38;;;;;;;;;;;;;;;20.16;52.69;96972.39;594797;238;66869;-68
2023/10/19 00:37:10;;;;;;;;;;;;;;;20.16;53.37;96975.05;594868;238;65496;-67
2023/10/19 00:39:43;;;;;;;;;;;;;;;20.16;52.52;96974.23;594899;238;67246;-67
2023/10/19 00:42:10;;;;;;;;;;;;;;;20.16;53.54;96968.89;594895;237;64895;-67
2023/10/19 00:44:42;;;;;;;;;;;;;;;20.16;54.85;96964.38;594969;238;62739;-67
2023/10/19 00:47:12;;;;;;;;;;;;;;;20.17;55.73;96965.18;594809;238;67641;-67
2023/10/19 00:49:38;;;;;;;;;;;;;;;20.15;55.49;96961.97;594785;236;66856;-67
2023/10/19 00:52:18;;;;;;;;;;;;;;;20.15;54.46;96961.97;594849;237;64914;-67
2023/10/19 00:57:21;;;;;;;;;;;;;;;20.16;54.32;96959.05;594878;237;68061;-67
2023/10/19 01:00:11;;;;;;;;;;;;;;;20.15;53.73;96962.77;594902;238;64980;-66
2023/10/19 01:05:04;;;;;;;;;;;;;;;20.16;53.30;96963.56;594918;238;67127;-68
2023/10/19 01:07:30;;;;;;;;;;;;;;;20.15;52.70;96956.63;594788;238;62358;-68
2023/10/19 01:09:59;;;;;;;;;;;;;;;20.14;53.44;96955.84;594884;238;67061;-68
2023/10/19 01:12:37;;;;;;;;;;;;;;;20.15;54.62;96952.09;594799;237;67059;-68
2023/10/19 01:15:07;;;;;;;;;;;;;;;20.15;55.62;96952.09;594890;238;64716;-68
2023/10/19 01:17:38;;;;;;;;;;;;;;;20.14;55.24;96947.04;594885;238;69517;-68
2023/10/19 01:20:12;;;;;;;;;;;;;;;20.13;54.84;96954.25;594813;237;67050;-67
2023/10/19 01:22:35;;;;;;;;;;;;;;;20.14;54.31;96949.70;594587;238;64806;-67
2023/10/19 01:25:04;;;;;;;;;;;;;;;20.14;53.94;96944.37;594929;237;67548;-67
2023/10/19 01:27:31;;;;;;;;;;;;;;;20.14;54.32;96939.03;594842;238;64671;-67
2023/10/19 01:30:01;;;;;;;;;;;;;;;20.14;54.01;96955.05;594860;238;65541;-67
2023/10/19 01:32:29;;;;;;;;;;;;;;;20.14;54.93;96947.04;594935;238;67455;-67
2023/10/19 01:34:57;;;;;;;;;;;;;;;20.14;55.53;96941.70;594879;238;67055;-67
2023/10/19 01:37:24;;;;;;;;;;;;;;;20.13;54.65;96940.08;594889;238;65578;-67
2023/10/19 01:39:52;;;;;;;;;;;;;;;20.14;55.83;96944.37;594889;238;65897;-67
2023/10/19 01:42:19;;;;;;;;;;;;;;;20.12;54.94;96939.29;594880;238;67264;-67
2023/10/19 01:44:47;;;;;;;;;;;;;;;20.14;54.94;96945.16;594924;238;62380;-67
2023/10/19 01:47:16;;;;;;;;;;;;;;;20.14;55.14;96949.70;595095;236;68154;-67
2023/10/19 01:49:45;;;;;;;;;;;;;;;20.14;55.65;96945.16;594819;236;67264;-67
2023/10/19 01:52:13;;;;;;;;;;;;;;;20.13;54.75;96946.25;594841;236;62396;-67
2023/10/19 01:54:40;;;;;;;;;;;;;;;20.13;55.73;96938.23;594905;238;64865;-67
2023/10/19 01:57:08;;;;;;;;;;;;;;;20.13;54.98;96943.58;594945;238;65549;-67
2023/10/19 01:59:35;;;;;;;;;;;;;;;20.13;55.23;96940.91;594878;238;64719;-67
2023/10/19 02:02:03;;;;;;;;;;;;;;;20.14;55.66;96939.03;594888;238;67167;-67
2023/10/19 02:04:34;;;;;;;;;;;;;;;20.13;54.91;96935.57;594831;237;64482;-67
2023/10/19 02:07:02;;;;;;;;;;;;;;;20.13;55.13;96929.41;594809;238;69825;-67
2023/10/19 02:09:32;;;;;;;;;;;;;;;20.14;56.58;96939.03;594914;238;67328;-67
2023/10/19 02:12:01;;;;;;;;;;;;;;;20.12;55.38;96935.83;594885;238;67715;-67
2023/10/19 02:14:29;;;;;;;;;;;;;;;20.12;56.31;96935.83;594822;238;65179;-67
2023/10/19 02:16:57;;;;;;;;;;;;;;;20.12;56.19;96941.95;594972;237;67172;-67
2023/10/19 02:19:26;;;;;;;;;;;;;;;20.11;56.21;96934.23;594861;237;67096;-67
2023/10/19 02:21:55;;;;;;;;;;;;;;;20.12;55.94;96936.62;594815;237;62452;-67
2023/10/19 02:24:23;;;;;;;;;;;;;;;20.12;55.68;96933.95;594862;237;67395;-67
2023/10/19 02:26:51;;;;;;;;;;;;;;;20.12;55.34;96933.95;594866;236;64705;-67
2023/10/19 02:29:19;;;;;;;;;;;;;;;20.12;56.66;96936.62;594895;237;64530;-67
2023/10/19 02:31:48;;;;;;;;;;;;;;;20.11;56.77;96945.70;594815;237;64478;-67
2023/10/19 02:34:15;;;;;;;;;;;;;;;20.11;56.76;96953.70;594918;237;66762;-66
2023/10/19 02:36:43;;;;;;;;;;;;;;;20.12;55.97;96946.50;594915;237;62645;-66
2023/10/19 02:39:13;;;;;;;;;;;;;;;20.11;55.92;96940.37;594959;237;66088;-66
2023/10/19 02:41:47;;;;;;;;;;;;;;;20.11;55.88;96936.91;594945;237;67082;-66
2023/10/19 02:44:21;;;;;;;;;;;;;;;20.11;54.80;96937.70;594821;236;64858;-66
2023/10/19 02:46:58;;;;;;;;;;;;;;;20.11;56.06;96940.37;594874;238;68231;-65
2023/10/19 02:49:22;;;;;;;;;;;;;;;20.11;55.52;96936.91;596179;235;65957;-65
2023/10/19 02:51:50;;;;;;;;;;;;;;;20.10;56.82;96938.75;602232;235;65713;-65
2023/10/19 02:54:22;;;;;;;;;;;;;;;20.09;55.73;96937.16;602618;234;64505;-65
2023/10/19 02:56:52;;;;;;;;;;;;;;;20.11;55.89;96944.91;602354;235;64501;-66
2023/10/19 02:59:27;;;;;;;;;;;;;;;20.11;55.87;96931.56;602363;235;65356;-65
2023/10/19 03:02:17;;;;;;;;;;;;;;;20.11;54.85;96934.23;602227;233;64470;-66
2023/10/19 03:04:25;;;;;;;;;;;;;;;20.09;55.58;96925.69;600359;235;67029;-66
2023/10/19 03:06:53;;;;;;;;;;;;;;;20.09;56.08;96931.82;602368;235;64906;-65
2023/10/19 03:09:29;;;;;;;;;;;;;;;20.10;55.89;96928.08;602551;233;67897;-65
2023/10/19 03:11:55;;;;;;;;;;;;;;;20.10;56.04;96928.08;602080;235;67467;-67
2023/10/19 03:14:27;;;;;;;;;;;;;;;20.10;56.01;96921.95;602443;235;62450;-67
2023/10/19 03:16:54;;;;;;;;;;;;;;;20.09;55.93;96923.81;602153;234;67360;-67
2023/10/19 03:19:21;;;;;;;;;;;;;;;20.09;55.74;96937.16;602501;234;67697;-67
2023/10/19 03:21:52;;;;;;;;;;;;;;;20.10;55.55;96930.75;602231;234;64924;-67
2023/10/19 03:27:21;;;;;;;;;;;;;;;20.10;55.87;96928.08;602128;234;65469;-67
2023/10/19 03:30:14;;;;;;;;;;;;;;;20.09;55.57;96931.03;602254;234;64837;-67
2023/10/19 03:32:19;;;;;;;;;;;;;;;20.09;56.05;96926.48;600085;235;67241;-67
2023/10/19 03:34:50;;;;;;;;;;;;;;;20.09;55.64;96931.03;602416;235;66779;-67
2023/10/19 03:37:19;;;;;;;;;;;;;;;20.08;55.82;96930.23;602081;235;64691;-66
2023/10/19 03:39:47;;;;;;;;;;;;;;;20.08;56.28;96924.07;602392;233;67235;-66
2023/10/19 03:42:14;;;;;;;;;;;;;;;20.08;55.63;96922.23;602276;235;66767;-66
2023/10/19 03:44:53;;;;;;;;;;;;;;;20.07;56.69;96925.94;602160;235;62427;-66
2023/10/19 03:47:20;;;;;;;;;;;;;;;20.08;55.64;96922.23;602082;235;66652;-66
2023/10/19 03:49:53;;;;;;;;;;;;;;;20.08;56.19;96930.23;598752;235;66810;-66
2023/10/19 03:54:48;;;;;;;;;;;;;;;20.09;56.21;96920.36;594892;238;64896;-65
2023/10/19 03:57:19;;;;;;;;;;;;;;;20.08;57.19;96913.40;594873;238;66764;-65
2023/10/19 03:59:56;;;;;;;;;;;;;;;20.07;55.95;96909.94;594912;238;64981;-65
2023/10/19 04:02:35;;;;;;;;;;;;;;;20.07;56.35;96909.94;594619;237;64809;-65
2023/10/19 04:05:01;;;;;;;;;;;;;;;20.08;56.57;96902.73;594792;238;64692;-65
2023/10/19 04:07:31;;;;;;;;;;;;;;;20.08;56.38;96902.73;594866;238;62434;-65
2023/10/19 04:09:58;;;;;;;;;;;;;;;20.06;56.53;96905.68;594874;237;64907;-66
2023/10/19 04:12:35;;;;;;;;;;;;;;;20.07;56.21;96907.27;594877;237;67065;-66
2023/10/19 04:15:25;;;;;;;;;;;;;;;20.07;56.49;96904.60;594688;237;64747;-66
2023/10/19 04:17:48;;;;;;;;;;;;;;;20.07;57.46;96901.94;594536;237;64921;-66
2023/10/19 04:22:50;;;;;;;;;;;;;;;20.07;56.59;96901.14;594878;238;62454;-67
2023/10/19 04:25:20;;;;;;;;;;;;;;;20.07;56.30;96904.60;594850;238;67303;-67
2023/10/19 04:27:48;;;;;;;;;;;;;;;20.06;56.15;96892.34;594831;237;66953;-67
2023/10/19 04:30:17;;;;;;;;;;;;;;;20.06;57.04;96889.67;594900;238;62502;-67
2023/10/19 04:32:46;;;;;;;;;;;;;;;20.06;56.78;96884.34;594915;237;67225;-67
2023/10/19 04:35:14;;;;;;;;;;;;;;;20.06;56.92;96888.88;594890;237;64646;-67
2023/10/19 04:37:44;;;;;;;;;;;;;;;20.06;56.57;96876.34;594882;238;64829;-67
2023/10/19 04:40:12;;;;;;;;;;;;;;;20.06;56.62;96884.34;594898;238;65062;-68
2023/10/19 04:42:39;;;;;;;;;;;;;;;20.05;56.31;96882.75;594837;238;67350;-67
2023/10/19 04:45:07;;;;;;;;;;;;;;;20.06;57.13;96889.67;594897;238;62513;-67
2023/10/19 04:47:35;;;;;;;;;;;;;;;20.05;56.33;96888.09;594934;238;67054;-67
2023/10/19 04:50:03;;;;;;;;;;;;;;;20.05;56.38;96888.09;594857;236;66946;-67
2023/10/19 04:52:31;;;;;;;;;;;;;;;20.07;56.82;96887.80;594792;238;64648;-68
2023/10/19 04:54:59;;;;;;;;;;;;;;;20.06;56.62;96878.21;594889;237;67090;-67
2023/10/19 04:57:26;;;;;;;;;;;;;;;20.06;56.91;96883.55;594909;238;67328;-68
2023/10/19 04:59:55;;;;;;;;;;;;;;;20.04;56.93;96886.47;594983;236;62760;-68
2023/10/19 05:02:22;;;;;;;;;;;;;;;20.05;56.92;96888.09;594761;238;66851;-67
2023/10/19 05:04:50;;;;;;;;;;;;;;;20.05;57.07;96888.09;594932;237;66969;-67
2023/10/19 05:07:17;;;;;;;;;;;;;;;20.05;56.11;96888.09;594787;238;65827;-67
2023/10/19 05:09:45;;;;;;;;;;;;;;;20.05;56.10;96890.75;594858;238;67376;-66
2023/10/19 05:12:14;;;;;;;;;;;;;;;20.06;57.21;96880.88;594839;238;67112;-66
2023/10/19 05:14:42;;;;;;;;;;;;;;;20.05;56.99;96885.42;594892;238;62455;-66
2023/10/19 05:17:10;;;;;;;;;;;;;;;20.04;57.51;96875.80;594761;237;65131;-66
2023/10/19 05:19:38;;;;;;;;;;;;;;;20.05;57.04;96879.26;594834;238;64889;-66
2023/10/19 05:22:07;;;;;;;;;;;;;;;20.05;57.41;96876.59;594878;238;64748;-66
2023/10/19 05:24:34;;;;;;;;;;;;;;;20.05;56.74;96877.41;594965;237;67427;-67
2023/10/19 05:27:02;;;;;;;;;;;;;;;20.05;56.73;96876.59;594876;238;66846;-67
2023/10/19 05:29:37;;;;;;;;;;;;;;;20.05;57.33;96866.75;594830;238;64931;-67
2023/10/19 05:32:02;;;;;;;;;;;;;;;20.04;58.14;96867.80;594632;238;65064;-68
2023/10/19 05:34:32;;;;;;;;;;;;;;;20.04;57.19;96865.12;594541;237;66950;-67
2023/10/19 05:37:01;;;;;;;;;;;;;;;20.04;58.01;96865.12;594853;238;64789;-67
2023/10/19 05:39:30;;;;;;;;;;;;;;;20.04;58.02;96875.80;594913;237;67192;-67
2023/10/19 05:42:01;;;;;;;;;;;;;;;20.04;57.29;96875.80;594846;237;67439;-67
2023/10/19 05:44:30;;;;;;;;;;;;;;;20.04;57.09;96883.00;594807;237;64805;-68
2023/10/19 05:46:58;;;;;;;;;;;;;;;20.04;57.63;96878.47;594872;238;67003;-68
2023/10/19 05:49:25;;;;;;;;;;;;;;;20.03;56.64;96876.87;594860;236;64579;-68
2023/10/19 05:51:53;;;;;;;;;;;;;;;20.04;57.26;96883.00;594882;238;64648;-68
2023/10/19 05:54:23;;;;;;;;;;;;;;;20.03;56.82;96879.55;594817;237;67079;-68
2023/10/19 05:56:50;;;;;;;;;;;;;;;20.03;57.02;96890.22;594717;238;65075;-68
2023/10/19 05:59:18;;;;;;;;;;;;;;;20.03;57.21;96876.08;594719;238;64698;-69
2023/10/19 06:01:48;;;;;;;;;;;;;;;20.03;55.78;96868.87;594538;237;65073;-69
2023/10/19 06:04:16;;;;;;;;;;;;;;;20.04;56.89;96875.80;594661;237;64727;-69
2023/10/19 06:06:43;;;;;;;;;;;;;;;20.04;57.69;96878.47;596238;236;62571;-68
2023/10/19 06:09:11;;;;;;;;;;;;;;;20.04;57.78;96864.33;600548;235;67232;-68
2023/10/19 06:11:42;;;;;;;;;;;;;;;20.04;56.87;96867.00;601330;236;64823;-68
2023/10/19 06:14:07;;;;;;;;;;;;;;;20.04;57.10;96864.33;601416;235;62507;-69
2023/10/19 06:16:35;;;;;;;;;;;;;;;20.03;57.62;96865.41;601473;235;64256;-68
2023/10/19 06:19:03;;;;;;;;;;;;;;;20.03;57.08;96862.74;601418;236;67030;-68
2023/10/19 06:21:34;;;;;;;;;;;;;;;20.03;56.57;96866.20;601367;235;63443;-69
2023/10/19 06:24:02;;;;;;;;;;;;;;;20.03;57.17;96858.20;601398;234;67313;-70
2023/10/19 06:26:30;;;;;;;;;;;;;;;20.02;56.99;96859.25;601409;236;67936;-69
2023/10/19 06:29:03;;;;;;;;;;;;;;;20.03;56.42;96863.53;601327;236;64734;-67
2023/10/19 06:31:28;;;;;;;;;;;;;;;20.03;56.62;96866.20;601302;235;66999;-68
2023/10/19 06:33:57;;;;;;;;;;;;;;;20.02;56.93;96864.59;601382;236;64969;-68
2023/10/19 06:36:24;;;;;;;;;;;;;;;20.03;57.19;96858.20;601423;236;64668;-68
2023/10/19 06:38:54;;;;;;;;;;;;;;;20.03;57.07;96858.20;601261;236;67064;-68
2023/10/19 06:41:21;;;;;;;;;;;;;;;20.03;56.49;96852.87;601423;235;67067;-67
2023/10/19 06:43:49;;;;;;;;;;;;;;;20.04;52.71;96859.00;601452;234;62600;-68
2023/10/19 06:46:17;;;;;;;;;;;;;;;20.06;54.47;96862.20;601048;234;67070;-66
2023/10/19 06:48:44;;;;;;;;;;;;;;;20.06;55.50;96857.66;601422;235;66922;-67
2023/10/19 06:51:12;;;;;;;;;;;;;;;20.07;54.70;96859.25;610333;232;64622;-66
2023/10/19 06:53:39;;;;;;;;;;;;;;;20.09;55.37;96856.33;607279;229;64844;-66
2023/10/19 06:56:07;;;;;;;;;;;;;;;20.10;55.56;96855.25;609101;229;66900;-67
2023/10/19 06:58:36;;;;;;;;;;;;;;;20.11;56.31;96849.66;611156;232;64574;-67
2023/10/19 07:01:08;;;;;;;;;;;;;;;20.11;56.12;96844.32;611163;232;67251;-67
2023/10/19 07:03:35;;;;;;;;;;;;;;;20.11;56.31;96844.32;610543;229;66859;-66
2023/10/19 07:06:03;;;;;;;;;;;;;;;20.12;55.83;96845.91;611130;229;64626;-66
2023/10/19 07:08:31;;;;;;;;;;;;;;;20.13;56.29;96839.52;611182;232;64868;-66
2023/10/19 07:10:59;;;;;;;;;;;;;;;20.13;57.57;96836.86;613728;229;67164;-66
2023/10/19 07:13:27;;;;;;;;;;;;;;;20.14;57.15;96833.11;613171;229;65762;-68
2023/10/19 07:15:55;;;;;;;;;;;;;;;20.14;56.20;96827.77;611170;232;67090;-65
2023/10/19 07:18:23;;;;;;;;;;;;;;;20.15;57.56;96824.02;611123;229;66905;-65
2023/10/19 07:21:00;;;;;;;;;;;;;;;20.15;57.33;96818.69;611158;232;64589;-66
2023/10/19 07:23:22;;;;;;;;;;;;;;;20.15;55.76;96818.69;610973;232;67168;-66
2023/10/19 07:26:13;;;;;;;;;;;;;;;20.16;56.80;96822.97;611164;229;64752;-66
2023/10/19 07:28:19;;;;;;;;;;;;;;;20.17;57.50;96813.89;606945;232;64592;-65
2023/10/19 07:30:47;;;;;;;;;;;;;;;20.10;56.33;96807.23;611165;232;66873;-64
2023/10/19 07:33:20;;;;;;;;;;;;;;;20.17;57.03;96816.55;611132;232;64744;-64
2023/10/19 07:35:52;;;;;;;;;;;;;;;20.18;56.39;96812.81;610863;232;62443;-66
2023/10/19 07:38:16;;;;;;;;;;;;;;;20.17;56.93;96811.22;610864;231;65251;-66
2023/10/19 07:40:44;;;;;;;;;;;;;;;20.18;52.60;96807.47;611162;232;67015;-65
2023/10/19 07:43:12;;;;;;;;;;;;;;;20.18;57.07;96802.14;611150;232;62399;-67
2023/10/19 07:45:39;;;;;;;;;;;;;;;20.18;56.48;96806.68;611202;232;67462;-67
2023/10/19 07:48:10;;;;;;;;;;;;;;;20.15;56.12;96810.69;611180;232;67380;-67
2023/10/19 07:50:37;;;;;;;;;;;;;;;20.15;54.93;96810.69;604787;232;62467;-66
2023/10/19 07:53:05;;;;;;;;;;;;;;;20.13;54.21;96807.51;602922;235;66763;-66
2023/10/19 07:55:32;;;;;;;;;;;;;;;20.13;54.81;96804.02;602916;235;66649;-67
2023/10/19 07:58:00;;;;;;;;;;;;;;;20.11;55.14;96801.64;602760;235;64634;-66
2023/10/19 08:00:33;;;;;;;;;;;;;;;20.12;54.67;96803.22;602862;235;67723;-66
2023/10/19 08:02:58;;;;;;;;;;;;;;;20.12;54.41;96802.43;602649;235;64421;-67
2023/10/19 08:05:26;;;;;;;;;;;;;;;20.11;54.42;96798.17;602877;235;62345;-67
2023/10/19 08:07:53;;;;;;;;;;;;;;;20.11;55.45;96796.30;602862;235;64406;-67
2023/10/19 08:10:21;;;;;;;;;;;;;;;20.11;55.10;96790.17;602862;235;64414;-67
2023/10/19 08:12:49;;;;;;;;;;;;;;;20.11;54.93;96787.50;602874;235;62767;-67
2023/10/19 08:15:17;;;;;;;;;;;;;;;20.09;55.13;96785.09;602920;235;66723;-67
2023/10/19 08:17:47;;;;;;;;;;;;;;;20.11;54.51;96779.50;602828;235;66828;-67
2023/10/19 08:20:24;;;;;;;;;;;;;;;20.10;55.08;96777.88;602863;235;64758;-67
2023/10/19 08:22:52;;;;;;;;;;;;;;;20.10;54.68;96778.67;602892;235;64898;-67
2023/10/19 08:25:20;;;;;;;;;;;;;;;20.10;55.14;96777.88;602761;235;67423;-66
2023/10/19 08:27:51;;;;;;;;;;;;;;;20.10;54.84;96767.21;602859;235;64541;-66
2023/10/19 08:30:20;;;;;;;;;;;;;;;20.10;55.05;96773.34;602860;235;65186;-65
2023/10/19 08:32:49;;;;;;;;;;;;;;;20.09;55.03;96766.42;602753;235;67017;-65
2023/10/19 08:35:24;;;;;;;;;;;;;;;20.08;54.80;96754.16;602843;235;62762;-65
2023/10/19 08:37:46;;;;;;;;;;;;;;;20.08;54.74;96746.16;602552;235;67229;-65
2023/10/19 08:40:15;;;;;;;;;;;;;;;20.08;56.17;96732.82;602782;235;64839;-65
2023/10/19 08:42:42;;;;;;;;;;;;;;;20.08;56.45;96722.16;602852;235;64775;-66
2023/10/19 08:45:13;;;;;;;;;;;;;;;20.09;56.45;96730.95;602810;235;64207;-65
2023/10/19 08:47:57;;;;;;;;;;;;;;;20.08;56.99;96748.83;602763;235;66743;-66
2023/10/19 08:50:26;;;;;;;;;;;;;;;20.08;56.44;96745.34;608562;231;64547;-66
2023/10/19 08:52:54;;;;;;;;;;;;;;;20.08;56.88;96740.00;610994;232;65232;-66
2023/10/19 08:55:22;;;;;;;;;;;;;;;20.08;57.25;96751.49;611065;232;66857;-66
2023/10/19 08:57:50;;;;;;;;;;;;;;;20.07;56.27;96751.75;611114;232;64757;-67
2023/10/19 09:00:18;;;;;;;;;;;;;;;20.07;57.25;96741.88;611137;232;64980;-64
2023/10/19 09:02:46;;;;;;;;;;;;;;;20.08;57.41;96734.66;611103;232;67016;-65
2023/10/19 09:05:22;;;;;;;;;;;;;;;20.08;57.01;96743.49;611132;232;64724;-64
2023/10/19 09:07:54;;;;;;;;;;;;;;;20.09;57.74;96730.95;611081;232;64577;-65
2023/10/19 09:10:19;;;;;;;;;;;;;;;20.08;57.06;96727.48;610900;232;69355;-66
2023/10/19 09:12:48;;;;;;;;;;;;;;;20.09;57.30;96730.95;611018;232;62471;-65
2023/10/19 09:15:28;;;;;;;;;;;;;;;20.08;56.83;96732.82;610548;231;65300;-66
2023/10/19 09:17:54;;;;;;;;;;;;;;;20.08;57.64;96740.83;611736;231;66921;-65
2023/10/19 09:20:27;;;;;;;;;;;;;;;20.10;58.01;96744.00;611888;232;62437;-65
2023/10/19 09:22:58;;;;;;;;;;;;;;;20.11;57.80;96736.81;611930;232;66964;-68
2023/10/19 09:25:25;;;;;;;;;;;;;;;20.10;56.37;96746.66;611954;232;66713;-65
2023/10/19 09:27:52;;;;;;;;;;;;;;;20.11;57.41;96737.61;611957;232;64653;-65
2023/10/19 09:30:20;;;;;;;;;;;;;;;20.11;58.04;96742.16;611807;232;64368;-66
2023/10/19 09:32:48;;;;;;;;;;;;;;;20.11;57.02;96737.61;611942;232;66337;-65
2023/10/19 09:35:16;;;;;;;;;;;;;;;20.12;57.35;96735.73;611957;232;64749;-65
2023/10/19 09:37:43;;;;;;;;;;;;;;;20.12;58.27;96736.53;611872;232;66742;-66
2023/10/19 09:40:12;;;;;;;;;;;;;;;20.12;57.41;96735.73;611930;232;66878;-66
2023/10/19 09:42:45;;;;;;;;;;;;;;;20.12;57.66;96741.86;611890;230;63496;-66
2023/10/19 09:45:11;;;;;;;;;;;;;;;20.12;57.27;96741.86;611735;231;66888;-66
2023/10/19 09:47:40;;;;;;;;;;;;;;;20.12;57.48;96749.87;611944;232;64911;-66
2023/10/19 09:50:10;;;;;;;;;;;;;;;20.12;57.29;96751.74;607712;231;64800;-67
2023/10/19 09:52:38;;;;;;;;;;;;;;;20.12;58.45;96755.20;605410;234;66722;-66
2023/10/19 09:55:13;;;;;;;;;;;;;;;20.13;58.05;96751.48;605319;234;66813;-67
2023/10/19 09:57:42;;;;;;;;;;;;;;;20.13;58.05;96740.81;604958;232;64778;-67
2023/10/19 10:00:23;;;;;;;;;;;;;;;20.14;57.76;96741.61;605225;233;66517;-67
2023/10/19 10:02:42;;;;;;;;;;;;;;;20.13;58.04;96746.15;606080;232;66696;-67
2023/10/19 10:05:28;;;;;;;;;;;;;;;20.13;58.40;96734.66;605954;233;64731;-67
2023/10/19 10:08:13;;;;;;;;;;;;;;;20.13;58.52;96730.14;606531;233;65007;-67
2023/10/19 10:10:41;;;;;;;;;;;;;;;20.13;58.71;96724.80;605793;233;66705;-66
2023/10/19 10:13:33;;;;;;;;;;;;;;;20.13;58.81;96718.64;605468;233;64946;-67
2023/10/19 10:16:00;;;;;;;;;;;;;;;20.13;58.54;96714.13;605689;233;66745;-69
2023/10/19 10:18:29;;;;;;;;;;;;;;;20.16;55.92;96710.92;606031;233;66815;-68
2023/10/19 10:21:08;;;;;;;;;;;;;;;20.17;57.92;96709.84;605945;233;62167;-68
2023/10/19 10:23:36;;;;;;;;;;;;;;;20.18;58.53;96711.42;605611;233;64868;-67
2023/10/19 10:26:06;;;;;;;;;;;;;;;20.20;58.37;96707.70;606070;233;66829;-66
2023/10/19 10:28:35;;;;;;;;;;;;;;;20.21;58.48;96699.41;605961;233;62694;-65
2023/10/19 10:31:18;;;;;;;;;;;;;;;20.22;58.04;96694.89;605943;233;66919;-66
2023/10/19 10:33:51;;;;;;;;;;;;;;;20.24;57.70;96698.06;606092;233;66643;-68
2023/10/19 10:36:19;;;;;;;;;;;;;;;20.23;57.72;96686.59;605532;233;62524;-68
2023/10/19 10:38:48;;;;;;;;;;;;;;;20.23;58.11;96689.27;606028;233;66792;-67
2023/10/19 10:41:17;;;;;;;;;;;;;;;20.25;58.39;96675.66;605779;233;66693;-67
2023/10/19 10:43:54;;;;;;;;;;;;;;;20.25;58.76;96675.66;604758;233;64542;-68
2023/10/19 10:46:24;;;;;;;;;;;;;;;20.25;58.15;96675.66;605965;233;64759;-69
2023/10/19 10:48:51;;;;;;;;;;;;;;;20.25;57.71;96664.98;605424;231;64214;-68
2023/10/19 10:51:32;;;;;;;;;;;;;;;20.25;57.83;96648.98;600718;234;62610;-68
2023/10/19 10:53:56;;;;;;;;;;;;;;;20.26;58.19;96656.70;600286;236;64312;-68
2023/10/19 10:56:24;;;;;;;;;;;;;;;20.26;58.06;96656.70;600471;236;67182;-68
2023/10/19 10:58:52;;;;;;;;;;;;;;;20.27;58.04;96657.48;600347;236;64740;-68
2023/10/19 11:01:35;;;;;;;;;;;;;;;20.28;58.50;96648.43;600424;236;66952;-69
2023/10/19 11:04:10;;;;;;;;;;;;;;;20.28;58.31;96651.09;600366;236;66789;-69
2023/10/19 11:06:51;;;;;;;;;;;;;;;20.28;58.08;96640.42;600432;236;64782;-66
2023/10/19 11:09:19;;;;;;;;;;;;;;;20.28;57.86;96648.43;600163;236;64572;-67
2023/10/19 11:11:46;;;;;;;;;;;;;;;20.29;57.84;96650.02;600454;235;64737;-67
2023/10/19 11:14:14;;;;;;;;;;;;;;;20.29;57.89;96636.67;600472;236;62474;-68
2023/10/19 11:16:43;;;;;;;;;;;;;;;20.30;57.36;96648.96;600493;234;65321;-67
2023/10/19 11:19:10;;;;;;;;;;;;;;;20.31;57.75;96634.53;600507;236;66568;-66
2023/10/19 11:21:38;;;;;;;;;;;;;;;20.31;57.68;96629.20;600466;236;64717;-67
2023/10/19 11:24:07;;;;;;;;;;;;;;;20.31;57.70;96631.86;600371;236;68168;-67
2023/10/19 11:26:36;;;;;;;;;;;;;;;20.32;57.83;96630.78;600518;234;64807;-67
2023/10/19 11:29:09;;;;;;;;;;;;;;;20.31;57.60;96621.98;600308;236;64884;-67
2023/10/19 11:31:39;;;;;;;;;;;;;;;20.32;57.56;96626.23;600411;236;66949;-65
2023/10/19 11:34:08;;;;;;;;;;;;;;;20.31;57.66;96616.64;600486;236;64472;-68
2023/10/19 11:36:36;;;;;;;;;;;;;;;20.32;57.64;96620.11;600494;236;64777;-69
2023/10/19 11:39:11;;;;;;;;;;;;;;;20.33;58.03;96617.17;600557;236;64232;-67
2023/10/19 11:41:36;;;;;;;;;;;;;;;20.33;57.84;96611.05;600502;236;64478;-67
2023/10/19 11:44:04;;;;;;;;;;;;;;;20.32;57.81;96604.89;600421;236;64386;-67
2023/10/19 11:46:31;;;;;;;;;;;;;;;20.34;57.71;96599.28;600470;236;64474;-67
2023/10/19 11:48:59;;;;;;;;;;;;;;;20.34;57.82;96597.41;600717;234;64790;-67
2023/10/19 11:51:27;;;;;;;;;;;;;;;20.34;57.60;96583.27;603135;235;65152;-66
2023/10/19 11:53:57;;;;;;;;;;;;;;;20.35;57.72;96582.19;602956;235;66905;-65
2023/10/19 11:56:25;;;;;;;;;;;;;;;20.35;56.86;96583.02;603035;235;67735;-67
2023/10/19 11:58:52;;;;;;;;;;;;;;;20.34;56.17;96581.40;603130;235;62618;-68
2023/10/19 12:01:20;;;;;;;;;;;;;;;20.34;57.16;96572.60;603208;235;66773;-67
2023/10/19 12:03:48;;;;;;;;;;;;;;;20.31;57.63;96570.48;603112;235;64184;-64
2023/10/19 12:06:23;;;;;;;;;;;;;;;20.31;58.21;96567.82;603113;235;64455;-67
2023/10/19 12:08:50;;;;;;;;;;;;;;;20.30;58.23;96566.23;603164;235;64339;-67
2023/10/19 12:11:24;;;;;;;;;;;;;;;20.29;58.00;96561.95;603187;235;66841;-66
2023/10/19 12:13:47;;;;;;;;;;;;;;;20.29;57.89;96572.63;603133;234;64805;-66
2023/10/19 12:16:19;;;;;;;;;;;;;;;20.29;58.37;96569.96;603153;235;66553;-66
2023/10/19 12:18:52;;;;;;;;;;;;;;;20.27;58.38;96559.58;603254;232;64342;-67
2023/10/19 12:21:17;;;;;;;;;;;;;;;20.27;57.87;96556.91;603154;235;64791;-67
2023/10/19 12:23:50;;;;;;;;;;;;;;;20.27;53.53;96566.77;603168;235;66712;-68
2023/10/19 12:26:14;;;;;;;;;;;;;;;20.32;54.75;96556.06;603099;235;66782;-68
2023/10/19 12:28:43;;;;;;;;;;;;;;;20.33;56.79;96563.01;603128;235;62462;-67
2023/10/19 12:31:10;;;;;;;;;;;;;;;20.31;57.96;96555.27;603145;235;66773;-68
2023/10/19 12:33:39;;;;;;;;;;;;;;;20.30;57.96;96561.69;603095;235;66820;-68
2023/10/19 12:38:49;;;;;;;;;;;;;;;20.28;57.85;96558.49;602865;235;64702;-68
2023/10/19 12:41:17;;;;;;;;;;;;;;;20.29;57.17;96561.95;603105;235;66755;-67
2023/10/19 12:43:46;;;;;;;;;;;;;;;20.28;57.19;96561.16;603182;235;62741;-69
2023/10/19 12:46:17;;;;;;;;;;;;;;;20.28;56.61;96561.16;603140;235;66903;-69
2023/10/19 12:48:46;;;;;;;;;;;;;;;20.29;58.04;96564.63;603045;234;67231;-68
2023/10/19 12:51:15;;;;;;;;;;;;;;;20.28;56.82;96549.70;603181;235;62524;-69
2023/10/19 12:53:42;;;;;;;;;;;;;;;20.28;56.32;96555.03;603191;235;66803;-69
2023/10/19 12:56:10;;;;;;;;;;;;;;;20.30;55.70;96552.89;603035;235;66668;-68
2023/10/19 12:58:41;;;;;;;;;;;;;;;20.30;56.28;96552.89;603241;235;62472;-69
2023/10/19 13:01:16;;;;;;;;;;;;;;;20.30;55.33;96555.56;603019;235;72710;-68
2023/10/19 13:03:40;;;;;;;;;;;;;;;20.30;55.83;96542.22;603059;235;66873;-68
2023/10/19 13:06:07;;;;;;;;;;;;;;;20.30;54.47;96545.68;603112;235;64715;-67
2023/10/19 13:08:35;;;;;;;;;;;;;;;20.30;54.77;96539.55;603030;235;66866;-67
2023/10/19 13:11:02;;;;;;;;;;;;;;;20.30;54.14;96535.00;603156;235;66958;-67
2023/10/19 13:13:30;;;;;;;;;;;;;;;20.31;55.66;96533.92;603037;235;62461;-67
2023/10/19 13:15:57;;;;;;;;;;;;;;;20.30;57.00;96515.53;603074;235;64710;-66